createdAt,value
2022-09-15T00:04:01.189Z,16.16
2022-09-15T00:09:05.113Z,16.09
2022-09-15T00:14:10.076Z,16.03
2022-09-15T00:19:12.865Z,15.97
2022-09-15T00:24:15.609Z,15.89
2022-09-15T00:29:20.764Z,15.84
2022-09-15T00:34:23.505Z,15.82
2022-09-15T00:39:26.287Z,15.77
2022-09-15T00:45:04.223Z,15.70
2022-09-15T00:50:11.835Z,15.62
2022-09-15T00:55:18.403Z,15.58
2022-09-15T01:00:25.994Z,15.50
2022-09-15T01:05:46.587Z,15.46
2022-09-15T01:10:52.000Z,15.41
2022-09-15T01:16:02.685Z,15.33
2022-09-15T01:21:13.207Z,15.30
2022-09-15T01:26:49.577Z,15.27
2022-09-15T01:32:16.332Z,15.17
2022-09-15T01:37:25.243Z,15.04
2022-09-15T01:42:31.536Z,15.03
2022-09-15T01:47:37.439Z,14.99
2022-09-15T01:52:44.244Z,14.88
2022-09-15T01:57:47.040Z,14.80
2022-09-15T02:02:57.190Z,14.82
2022-09-15T02:08:06.051Z,14.80
2022-09-15T02:13:15.634Z,14.74
2022-09-15T02:18:29.771Z,14.65
2022-09-15T02:23:37.604Z,14.66
2022-09-15T02:28:42.319Z,14.65
2022-09-15T02:33:50.399Z,14.61
2022-09-15T02:38:58.120Z,14.60
2022-09-15T02:44:00.907Z,14.51
2022-09-15T02:49:05.010Z,14.47
2022-09-15T02:54:08.171Z,14.46
2022-09-15T02:59:11.009Z,14.45
2022-09-15T03:04:15.335Z,14.45
2022-09-15T03:09:18.049Z,14.43
2022-09-15T03:14:20.756Z,14.42
2022-09-15T03:19:24.805Z,14.40
2022-09-15T03:24:27.690Z,14.34
2022-09-15T03:29:30.903Z,14.33
2022-09-15T03:34:35.282Z,14.29
2022-09-15T03:39:38.035Z,14.21
2022-09-15T03:44:40.873Z,14.19
2022-09-15T03:49:45.473Z,14.14
2022-09-15T03:54:49.699Z,14.13
2022-09-15T03:59:52.378Z,14.10
2022-09-15T04:04:56.899Z,14.03
2022-09-15T04:10:00.938Z,14.01
2022-09-15T04:15:05.017Z,13.93
2022-09-15T04:20:11.167Z,13.95
2022-09-15T04:25:13.855Z,13.89
2022-09-15T04:30:16.555Z,13.85
2022-09-15T04:35:22.007Z,13.78
2022-09-15T04:40:25.835Z,13.68
2022-09-15T04:45:28.699Z,13.60
2022-09-15T04:50:33.802Z,13.51
2022-09-15T04:55:38.627Z,13.49
2022-09-15T05:00:43.526Z,13.42
2022-09-15T05:05:48.972Z,13.40
2022-09-15T05:10:51.638Z,13.42
2022-09-15T05:15:54.490Z,13.46
2022-09-15T05:21:00.783Z,13.41
2022-09-15T05:26:05.799Z,13.42
2022-09-15T05:31:11.325Z,13.38
2022-09-15T05:36:17.211Z,13.38
2022-09-15T05:41:20.802Z,13.38
2022-09-15T05:46:25.958Z,13.42
2022-09-15T05:51:33.381Z,13.43
2022-09-15T05:56:36.184Z,13.48
2022-09-15T06:01:39.068Z,13.56
2022-09-15T06:06:43.243Z,13.72
2022-09-15T06:11:46.158Z,13.82
2022-09-15T06:16:48.887Z,13.85
2022-09-15T06:21:54.002Z,13.90
2022-09-15T06:26:56.738Z,13.80
2022-09-15T06:32:02.838Z,13.86
2022-09-15T06:37:08.036Z,13.71
2022-09-15T06:42:13.811Z,13.84
2022-09-15T06:47:17.915Z,13.95
2022-09-15T06:52:22.107Z,14.06
2022-09-15T06:57:25.003Z,14.12
2022-09-15T07:02:27.835Z,14.11
2022-09-15T07:07:32.313Z,14.22
2022-09-15T07:12:35.141Z,14.21
2022-09-15T07:17:37.919Z,14.42
2022-09-15T07:22:41.979Z,14.96
2022-09-15T07:27:44.907Z,15.09
2022-09-15T07:32:47.676Z,15.18
2022-09-15T07:37:52.406Z,15.54
2022-09-15T07:42:55.210Z,16.03
2022-09-15T07:47:58.140Z,15.87
2022-09-15T07:53:02.555Z,15.99
2022-09-15T07:58:05.333Z,16.13
2022-09-15T08:03:08.075Z,16.01
2022-09-15T08:08:12.216Z,16.31
2022-09-15T08:13:15.310Z,16.39
2022-09-15T08:18:19.169Z,16.51
2022-09-15T08:23:23.384Z,16.76
2022-09-15T08:28:26.845Z,17.14
2022-09-15T08:33:31.527Z,17.25
2022-09-15T08:38:35.674Z,17.49
2022-09-15T08:43:42.196Z,17.42
2022-09-15T08:48:49.294Z,17.87
2022-09-15T08:54:00.475Z,17.43
2022-09-15T08:59:03.205Z,17.50
2022-09-15T09:04:33.286Z,17.28
2022-09-15T09:09:43.763Z,17.57
2022-09-15T09:15:00.132Z,17.90
2022-09-15T09:20:26.226Z,17.89
2022-09-15T09:25:35.007Z,18.08
2022-09-15T09:30:38.215Z,17.61
2022-09-15T09:35:44.903Z,17.66
2022-09-15T09:40:50.167Z,17.64
2022-09-15T09:45:53.007Z,17.82
2022-09-15T09:50:55.990Z,18.22
2022-09-15T09:56:24.722Z,18.87
2022-09-15T10:01:27.617Z,19.59
2022-09-15T10:06:32.084Z,19.71
2022-09-15T10:11:43.970Z,19.69
2022-09-15T10:16:57.510Z,19.09
2022-09-15T10:22:03.051Z,19.33
2022-09-15T10:27:19.637Z,19.56
2022-09-15T10:32:28.899Z,19.35
2022-09-15T10:37:36.043Z,19.07
2022-09-15T10:42:50.844Z,18.17
2022-09-15T10:48:07.220Z,18.03
2022-09-15T10:53:18.319Z,18.55
2022-09-15T10:58:45.869Z,18.20
2022-09-15T11:04:12.519Z,18.33
2022-09-15T11:09:22.360Z,18.19
2022-09-15T11:14:39.515Z,18.11
2022-09-15T11:20:01.729Z,17.92
2022-09-15T11:25:13.779Z,17.87
2022-09-15T11:30:20.653Z,17.79
2022-09-15T11:35:33.793Z,17.84
2022-09-15T11:40:42.149Z,18.05
2022-09-15T11:45:48.600Z,18.11
2022-09-15T11:50:55.967Z,18.34
2022-09-15T11:56:08.218Z,19.42
2022-09-15T12:01:20.384Z,19.24
2022-09-15T12:06:30.169Z,19.68
2022-09-15T12:11:36.526Z,20.12
2022-09-15T12:16:41.405Z,20.58
2022-09-15T12:21:51.145Z,20.52
2022-09-15T12:26:53.965Z,20.19
2022-09-15T12:37:26.763Z,19.15
2022-09-15T12:42:32.180Z,19.29
2022-09-15T12:47:38.993Z,19.44
2022-09-15T12:52:48.296Z,19.69
2022-09-15T12:57:54.095Z,20.33
2022-09-15T13:02:57.405Z,19.76
2022-09-15T13:08:01.687Z,19.18
2022-09-15T13:13:21.594Z,18.83
2022-09-15T13:18:26.292Z,18.89
2022-09-15T13:23:36.631Z,19.39
2022-09-15T13:28:40.396Z,19.24
2022-09-15T13:40:09.570Z,18.99
2022-09-15T13:45:25.549Z,18.58
2022-09-15T13:50:35.325Z,19.07
2022-09-15T13:55:42.627Z,18.99
2022-09-15T14:00:55.063Z,19.01
2022-09-15T14:05:58.697Z,18.92
2022-09-15T14:11:08.215Z,18.56
2022-09-15T14:16:24.607Z,18.86
2022-09-15T14:21:29.679Z,19.25
2022-09-15T14:26:36.386Z,18.90
2022-09-15T14:31:40.987Z,19.12
2022-09-15T14:36:43.947Z,19.66
2022-09-15T14:41:49.672Z,19.26
2022-09-15T14:46:52.991Z,18.92
2022-09-15T14:51:55.731Z,18.75
2022-09-15T14:57:03.676Z,19.18
2022-09-15T15:02:20.481Z,19.37
2022-09-15T15:07:26.209Z,19.00
2022-09-15T15:12:34.653Z,18.76
2022-09-15T15:17:40.009Z,18.93
2022-09-15T15:22:44.547Z,18.96
2022-09-15T15:27:53.006Z,18.94
2022-09-15T15:32:56.658Z,18.64
2022-09-15T15:38:05.046Z,18.38
2022-09-15T15:43:23.393Z,18.16
2022-09-15T15:48:26.753Z,18.15
2022-09-15T15:53:29.520Z,17.82
2022-09-15T15:58:33.658Z,17.56
2022-09-15T16:03:36.379Z,17.37
2022-09-15T16:08:41.287Z,17.20
2022-09-15T16:13:45.710Z,17.07
2022-09-15T16:18:49.035Z,16.94
2022-09-15T16:23:51.784Z,16.89
2022-09-15T16:28:55.910Z,16.73
2022-09-15T16:33:58.762Z,16.69
2022-09-15T16:39:01.487Z,16.61
2022-09-15T16:44:07.507Z,16.42
2022-09-15T16:49:10.291Z,16.30
2022-09-15T16:54:16.468Z,16.08
2022-09-15T16:59:21.803Z,15.94
2022-09-15T17:04:24.523Z,15.83
2022-09-15T17:09:27.791Z,15.65
2022-09-15T17:14:33.095Z,15.50
2022-09-15T17:19:35.776Z,15.36
2022-09-15T17:24:38.563Z,15.32
2022-09-15T17:29:42.600Z,15.30
2022-09-15T17:34:46.176Z,15.17
2022-09-15T17:39:49.932Z,15.14
2022-09-15T17:44:54.054Z,15.06
2022-09-15T17:49:56.771Z,15.06
2022-09-15T17:54:59.471Z,15.04
2022-09-15T18:00:03.784Z,15.05
2022-09-15T18:05:10.683Z,15.00
2022-09-15T18:10:13.677Z,14.97
2022-09-15T18:15:21.128Z,14.94
2022-09-15T18:20:26.188Z,14.79
2022-09-15T18:25:35.783Z,14.77
2022-09-15T18:30:41.667Z,14.72
2022-09-15T18:35:45.311Z,14.60
2022-09-15T18:40:49.316Z,14.61
2022-09-15T18:45:55.073Z,14.50
2022-09-15T18:50:58.090Z,14.50
2022-09-15T18:56:00.878Z,14.45
2022-09-15T19:01:05.183Z,14.40
2022-09-15T19:06:08.599Z,14.40
2022-09-15T19:11:11.323Z,14.30
2022-09-15T19:16:15.628Z,14.29
2022-09-15T19:21:18.515Z,14.24
2022-09-15T19:26:21.599Z,14.21
2022-09-15T19:31:28.226Z,14.22
2022-09-15T19:36:31.578Z,14.20
2022-09-15T19:41:34.299Z,14.19
2022-09-15T19:46:38.474Z,14.16
2022-09-15T19:51:41.451Z,14.14
2022-09-15T19:56:44.174Z,14.15
2022-09-15T20:01:48.553Z,14.10
2022-09-15T20:06:51.559Z,14.09
2022-09-15T20:11:54.218Z,14.10
2022-09-15T20:17:01.131Z,14.08
2022-09-15T20:22:04.846Z,14.12
2022-09-15T20:27:08.809Z,14.10
2022-09-15T20:32:13.233Z,14.11
2022-09-15T20:37:15.984Z,14.10
2022-09-15T20:42:18.818Z,14.10
2022-09-15T20:47:23.068Z,14.08
2022-09-15T20:52:29.482Z,14.10
2022-09-15T20:57:33.161Z,14.08
2022-09-15T21:02:37.511Z,14.07
2022-09-15T21:07:40.455Z,14.04
2022-09-15T21:12:43.211Z,14.02
2022-09-15T21:17:47.491Z,14.00
2022-09-15T21:22:54.381Z,13.96
2022-09-15T21:27:57.166Z,13.95
2022-09-15T21:33:01.979Z,13.90
2022-09-15T21:38:05.042Z,13.89
2022-09-15T21:43:07.818Z,13.87
2022-09-15T21:48:14.117Z,13.86
2022-09-15T21:53:16.882Z,13.81
2022-09-15T21:58:20.937Z,13.82
2022-09-15T22:03:25.418Z,13.80
2022-09-15T22:08:29.105Z,13.76
2022-09-15T22:13:31.946Z,13.73
2022-09-15T22:18:38.275Z,13.70
2022-09-15T22:23:41.817Z,13.68
2022-09-15T22:28:45.118Z,13.62
2022-09-15T22:33:49.425Z,13.63
2022-09-15T22:38:52.334Z,13.56
2022-09-15T22:43:55.769Z,13.49
2022-09-15T22:49:00.825Z,13.46
2022-09-15T22:54:03.816Z,13.39
2022-09-15T22:59:06.481Z,13.36
2022-09-15T23:04:10.525Z,13.31
2022-09-15T23:09:15.459Z,13.26
2022-09-15T23:14:19.018Z,13.21
2022-09-15T23:19:24.161Z,13.15
2022-09-15T23:24:26.920Z,13.09
2022-09-15T23:29:29.716Z,13.06
2022-09-15T23:34:33.763Z,13.02
2022-09-15T23:39:36.561Z,13.02
2022-09-15T23:44:39.333Z,13.03
2022-09-15T23:49:43.375Z,12.98
2022-09-15T23:54:46.155Z,12.94
2022-09-15T23:59:48.842Z,12.92
